createdAt,value
2023-03-15T00:02:02.075Z,5.10
2023-03-15T00:04:29.618Z,6.10
2023-03-15T00:06:56.618Z,11.30
2023-03-15T00:09:24.509Z,6.30
2023-03-15T00:11:52.427Z,5.40
2023-03-15T00:14:19.441Z,4.50
2023-03-15T00:16:46.993Z,7.10
2023-03-15T00:19:14.270Z,7.50
2023-03-15T00:21:43.459Z,10.68
2023-03-15T00:24:14.152Z,5.50
2023-03-15T00:26:41.169Z,6.78
2023-03-15T00:29:08.207Z,5.72
2023-03-15T00:31:36.128Z,9.65
2023-03-15T00:34:03.284Z,7.57
2023-03-15T00:36:30.513Z,10.10
2023-03-15T00:38:57.632Z,11.63
2023-03-15T00:41:27.201Z,6.60
2023-03-15T00:43:54.322Z,8.02
2023-03-15T00:46:21.348Z,9.73
2023-03-15T00:48:49.765Z,9.48
2023-03-15T00:51:20.121Z,6.60
2023-03-15T00:53:48.500Z,11.57
2023-03-15T00:56:19.849Z,11.63
2023-03-15T00:58:46.854Z,7.73
2023-03-15T01:01:19.676Z,13.30
2023-03-15T01:03:47.072Z,12.02
2023-03-15T01:06:20.734Z,8.93
2023-03-15T01:08:48.100Z,6.85
2023-03-15T01:11:20.120Z,12.23
2023-03-15T01:13:47.284Z,9.00
2023-03-15T01:16:15.238Z,11.57
2023-03-15T01:18:42.734Z,12.98
2023-03-15T01:21:11.683Z,13.52
2023-03-15T01:23:38.960Z,13.52
2023-03-15T01:26:07.828Z,11.10
2023-03-15T01:28:35.041Z,15.68
2023-03-15T01:31:02.319Z,11.27
2023-03-15T01:33:29.603Z,9.43
2023-03-15T01:36:01.639Z,10.07
2023-03-15T01:38:29.062Z,9.02
2023-03-15T01:40:56.104Z,13.15
2023-03-15T01:43:25.396Z,10.50
2023-03-15T01:46:15.856Z,14.23
2023-03-15T01:48:51.197Z,9.98
2023-03-15T01:51:23.158Z,9.13
2023-03-15T01:54:01.474Z,11.30
2023-03-15T01:56:29.484Z,11.70
2023-03-15T01:58:58.256Z,9.50
2023-03-15T02:01:25.762Z,10.70
2023-03-15T02:04:00.107Z,11.82
2023-03-15T02:06:27.209Z,9.27
2023-03-15T02:08:57.793Z,10.45
2023-03-15T02:11:26.458Z,10.38
2023-03-15T02:13:54.716Z,10.90
2023-03-15T02:16:22.805Z,15.52
2023-03-15T02:18:49.852Z,10.82
2023-03-15T02:21:42.871Z,13.65
2023-03-15T02:24:55.978Z,11.27
2023-03-15T02:27:31.213Z,15.32
2023-03-15T02:29:58.512Z,12.85
2023-03-15T02:32:25.550Z,15.18
2023-03-15T02:34:52.573Z,11.95
2023-03-15T02:37:19.597Z,19.67
2023-03-15T02:39:46.550Z,10.93
2023-03-15T02:42:14.183Z,13.73
2023-03-15T02:44:43.392Z,16.52
2023-03-15T02:47:17.316Z,13.68
2023-03-15T02:49:46.733Z,12.85
2023-03-15T02:52:14.127Z,12.93
2023-03-15T02:54:43.643Z,11.27
2023-03-15T02:57:11.811Z,10.68
2023-03-15T02:59:39.154Z,10.50
2023-03-15T03:02:06.509Z,12.55
2023-03-15T03:04:33.518Z,9.48
2023-03-15T03:07:00.615Z,12.32
2023-03-15T03:09:28.072Z,11.10
2023-03-15T03:11:55.058Z,8.20
2023-03-15T03:14:24.261Z,8.43
2023-03-15T03:16:53.963Z,8.57
2023-03-15T03:19:26.048Z,15.52
2023-03-15T03:24:21.585Z,10.52
2023-03-15T03:26:48.526Z,16.27
2023-03-15T03:29:16.895Z,9.07
2023-03-15T03:31:45.026Z,12.15
2023-03-15T03:34:15.639Z,8.38
2023-03-15T03:36:43.750Z,8.82
2023-03-15T03:39:10.987Z,10.07
2023-03-15T03:41:40.870Z,13.35
2023-03-15T03:44:07.952Z,9.15
2023-03-15T03:46:36.492Z,6.55
2023-03-15T03:49:03.497Z,13.00
2023-03-15T03:51:30.911Z,15.73
2023-03-15T03:53:57.916Z,7.32
2023-03-15T03:56:24.880Z,11.52
2023-03-15T03:58:51.865Z,9.65
2023-03-15T04:01:18.932Z,11.13
2023-03-15T04:03:45.911Z,8.48
2023-03-15T04:06:12.922Z,12.82
2023-03-15T04:08:41.191Z,10.10
2023-03-15T04:11:09.806Z,15.63
2023-03-15T04:13:36.744Z,14.13
2023-03-15T04:16:04.125Z,12.98
2023-03-15T04:18:31.256Z,11.00
2023-03-15T04:20:58.226Z,6.03
2023-03-15T04:23:25.375Z,14.32
2023-03-15T04:25:55.363Z,11.88
2023-03-15T04:28:24.564Z,12.98
2023-03-15T04:30:51.747Z,13.02
2023-03-15T04:33:18.836Z,8.13
2023-03-15T04:35:45.782Z,15.32
2023-03-15T04:38:12.884Z,13.70
2023-03-15T04:40:39.918Z,16.95
2023-03-15T04:43:06.864Z,12.20
2023-03-15T04:45:34.155Z,11.57
2023-03-15T04:48:02.397Z,10.15
2023-03-15T04:50:30.466Z,12.02
2023-03-15T04:53:00.918Z,13.23
2023-03-15T04:55:30.093Z,12.60
2023-03-15T04:57:58.419Z,10.80
2023-03-15T05:00:27.691Z,10.57
2023-03-15T05:02:57.784Z,11.20
2023-03-15T05:05:26.892Z,9.10
2023-03-15T05:07:54.155Z,12.38
2023-03-15T05:10:23.808Z,15.45
2023-03-15T05:12:51.133Z,11.05
2023-03-15T05:15:18.800Z,13.15
2023-03-15T05:17:46.625Z,13.57
2023-03-15T05:20:15.176Z,12.00
2023-03-15T05:22:42.773Z,13.10
2023-03-15T05:25:10.864Z,11.77
2023-03-15T05:27:38.504Z,12.63
2023-03-15T05:30:07.472Z,10.82
2023-03-15T05:32:37.791Z,12.50
2023-03-15T05:35:06.643Z,17.83
2023-03-15T05:37:35.824Z,18.98
2023-03-15T05:40:05.024Z,16.98
2023-03-15T05:42:32.171Z,16.13
2023-03-15T05:44:59.247Z,12.85
2023-03-15T05:47:26.224Z,14.63
2023-03-15T05:49:53.618Z,18.98
2023-03-15T05:52:20.593Z,8.85
2023-03-15T05:54:47.616Z,13.88
2023-03-15T05:57:14.572Z,11.43
2023-03-15T05:59:43.774Z,8.43
2023-03-15T06:02:10.783Z,14.35
2023-03-15T06:04:38.202Z,11.52
2023-03-15T06:07:05.688Z,12.57
2023-03-15T06:09:32.893Z,12.02
2023-03-15T06:12:00.160Z,7.65
2023-03-15T06:14:27.604Z,12.60
2023-03-15T06:16:54.773Z,15.80
2023-03-15T06:19:22.495Z,9.32
2023-03-15T06:21:49.486Z,11.07
2023-03-15T06:24:16.665Z,15.98
2023-03-15T06:26:46.092Z,11.65
2023-03-15T06:29:13.013Z,13.73
2023-03-15T06:31:39.972Z,12.13
2023-03-15T06:34:06.856Z,13.27
2023-03-15T06:36:37.115Z,14.57
2023-03-15T06:39:05.844Z,12.52
2023-03-15T06:41:32.732Z,10.45
2023-03-15T06:43:59.779Z,14.02
2023-03-15T06:46:26.735Z,10.80
2023-03-15T06:48:53.672Z,13.65
2023-03-15T06:51:20.710Z,15.95
2023-03-15T06:53:47.670Z,13.63
2023-03-15T06:56:14.564Z,13.27
2023-03-15T06:58:41.613Z,12.18
2023-03-15T07:01:08.809Z,12.63
2023-03-15T07:03:35.773Z,11.43
2023-03-15T07:06:03.101Z,15.13
2023-03-15T07:08:30.070Z,13.18
2023-03-15T07:10:57.824Z,14.45
2023-03-15T07:13:24.869Z,10.63
2023-03-15T07:15:53.449Z,11.90
2023-03-15T07:18:21.021Z,9.50
2023-03-15T07:20:48.020Z,13.82
2023-03-15T07:23:14.935Z,15.40
2023-03-15T07:25:54.278Z,10.68
2023-03-15T07:28:22.448Z,16.42
2023-03-15T07:31:07.534Z,16.90
2023-03-15T07:33:38.518Z,14.38
2023-03-15T07:36:07.169Z,12.55
2023-03-15T07:38:35.297Z,14.13
2023-03-15T07:41:03.180Z,12.10
2023-03-15T07:43:30.083Z,15.18
2023-03-15T07:45:56.960Z,14.90
2023-03-15T07:48:24.238Z,12.00
2023-03-15T07:50:52.590Z,15.00
2023-03-15T07:53:19.530Z,13.18
2023-03-15T07:55:50.425Z,12.50
2023-03-15T07:58:20.233Z,12.10
2023-03-15T08:00:47.475Z,11.65
2023-03-15T08:03:15.939Z,12.70
2023-03-15T08:05:42.816Z,10.85
2023-03-15T08:08:09.799Z,16.55
2023-03-15T08:10:36.730Z,10.15
2023-03-15T08:13:03.797Z,11.13
2023-03-15T08:15:30.739Z,12.32
2023-03-15T08:17:59.026Z,9.82
2023-03-15T08:20:28.400Z,16.42
2023-03-15T08:22:56.355Z,15.55
2023-03-15T08:25:24.826Z,19.08
2023-03-15T08:27:51.931Z,14.48
2023-03-15T08:30:21.864Z,15.43
2023-03-15T08:32:50.359Z,14.27
2023-03-15T08:35:18.189Z,17.02
2023-03-15T08:37:48.315Z,15.20
2023-03-15T08:40:16.653Z,10.45
2023-03-15T08:42:43.549Z,13.95
2023-03-15T08:45:11.436Z,16.13
2023-03-15T08:47:38.737Z,14.48
2023-03-15T08:50:16.677Z,9.88
2023-03-15T08:52:43.705Z,9.48
2023-03-15T08:55:14.529Z,11.85
2023-03-15T08:57:43.154Z,13.60
2023-03-15T09:00:17.371Z,13.65
2023-03-15T09:02:44.622Z,14.20
2023-03-15T09:05:12.102Z,13.65
2023-03-15T09:07:43.149Z,10.65
2023-03-15T09:10:15.010Z,15.60
2023-03-15T09:12:53.980Z,18.00
2023-03-15T09:15:21.733Z,12.32
2023-03-15T09:17:50.974Z,14.93
2023-03-15T09:20:19.348Z,12.02
2023-03-15T09:22:54.783Z,10.57
2023-03-15T09:25:22.731Z,11.73
2023-03-15T09:27:50.100Z,15.70
2023-03-15T09:30:17.611Z,15.77
2023-03-15T09:32:45.943Z,12.23
2023-03-15T09:35:16.017Z,9.00
2023-03-15T09:37:43.089Z,10.48
2023-03-15T09:40:15.946Z,9.70
2023-03-15T09:43:07.789Z,16.77
2023-03-15T09:46:18.691Z,6.53
2023-03-15T09:48:55.616Z,11.38
2023-03-15T09:51:32.280Z,10.80
2023-03-15T09:54:05.984Z,11.48
2023-03-15T09:56:36.953Z,12.18
2023-03-15T09:59:04.415Z,12.75
2023-03-15T10:01:42.130Z,7.97
2023-03-15T10:04:30.897Z,10.20
2023-03-15T10:07:02.111Z,15.70
2023-03-15T10:09:37.861Z,9.75
2023-03-15T10:12:06.298Z,12.05
2023-03-15T10:14:54.903Z,15.90
2023-03-15T10:17:43.067Z,10.40
2023-03-15T10:20:19.595Z,15.13
2023-03-15T10:22:55.397Z,17.90
2023-03-15T10:25:26.344Z,13.43
2023-03-15T10:28:15.994Z,11.10
2023-03-15T10:30:48.791Z,8.25
2023-03-15T10:33:24.176Z,12.05
2023-03-15T10:35:52.461Z,13.48
2023-03-15T10:38:25.341Z,13.00
2023-03-15T10:40:52.230Z,14.68
2023-03-15T10:43:23.489Z,9.55
2023-03-15T10:46:01.968Z,13.80
2023-03-15T10:48:31.399Z,10.35
2023-03-15T10:51:04.426Z,11.85
2023-03-15T10:53:31.534Z,18.40
2023-03-15T10:56:02.008Z,14.07
2023-03-15T10:58:39.589Z,15.10
2023-03-15T11:15:05.438Z,12.90
2023-03-15T11:17:37.344Z,10.93
2023-03-15T11:20:31.214Z,12.65
2023-03-15T11:22:59.176Z,11.43
2023-03-15T11:25:33.910Z,8.68
2023-03-15T11:28:01.552Z,12.52
2023-03-15T11:30:31.903Z,20.38
2023-03-15T11:33:07.257Z,12.25
2023-03-15T11:35:41.022Z,14.95
2023-03-15T11:38:40.235Z,10.13
2023-03-15T11:41:25.826Z,12.20
2023-03-15T11:43:56.904Z,15.05
2023-03-15T11:46:30.014Z,11.38
2023-03-15T11:49:35.252Z,11.73
2023-03-15T11:52:02.614Z,12.55
2023-03-15T11:54:30.702Z,9.55
2023-03-15T11:57:01.595Z,7.43
2023-03-15T11:59:37.858Z,11.40
2023-03-15T12:02:11.362Z,13.35
2023-03-15T12:04:45.793Z,11.95
2023-03-15T12:07:24.576Z,11.75
2023-03-15T12:10:17.629Z,11.98
2023-03-15T12:12:57.210Z,18.38
2023-03-15T12:15:26.831Z,15.73
2023-03-15T12:17:56.841Z,9.82
2023-03-15T12:20:37.850Z,11.82
2023-03-15T12:23:10.491Z,16.13
2023-03-15T12:25:48.898Z,13.93
2023-03-15T12:28:51.284Z,13.57
2023-03-15T12:31:18.715Z,11.48
2023-03-15T12:33:52.701Z,18.90
2023-03-15T12:36:40.753Z,16.90
2023-03-15T12:39:16.963Z,15.05
2023-03-15T12:41:46.752Z,9.13
2023-03-15T12:44:32.125Z,9.40
2023-03-15T12:46:59.163Z,10.40
2023-03-15T12:49:33.937Z,11.70
2023-03-15T12:52:27.334Z,11.07
2023-03-15T12:55:03.826Z,12.82
2023-03-15T12:57:36.722Z,9.82
2023-03-15T13:00:06.466Z,10.57
2023-03-15T13:02:44.401Z,11.40
2023-03-15T13:05:17.498Z,14.15
2023-03-15T13:08:10.366Z,9.98
2023-03-15T13:11:04.574Z,14.05
2023-03-15T13:14:08.468Z,9.43
2023-03-15T13:16:49.074Z,11.13
2023-03-15T13:19:15.988Z,13.80
2023-03-15T13:22:14.173Z,9.43
2023-03-15T13:24:59.084Z,8.02
2023-03-15T13:27:41.661Z,9.55
2023-03-15T13:30:43.012Z,9.40
2023-03-15T13:33:21.417Z,10.35
2023-03-15T13:35:58.578Z,10.93
2023-03-15T13:38:33.102Z,6.93
2023-03-15T13:41:15.328Z,8.98
2023-03-15T13:43:45.037Z,6.60
2023-03-15T13:46:12.557Z,7.40
2023-03-15T13:48:43.972Z,7.50
2023-03-15T13:51:25.949Z,11.02
2023-03-15T13:54:02.726Z,7.28
2023-03-15T13:56:48.918Z,7.45
2023-03-15T13:59:17.858Z,9.02
2023-03-15T14:01:45.160Z,13.05
2023-03-15T14:04:17.710Z,7.05
2023-03-15T14:06:48.221Z,7.50
2023-03-15T14:09:21.732Z,7.20
2023-03-15T14:12:02.993Z,10.20
2023-03-15T14:14:31.691Z,11.35
2023-03-15T14:17:05.896Z,8.02
2023-03-15T14:19:35.217Z,8.13
2023-03-15T14:22:17.554Z,5.85
2023-03-15T14:27:24.941Z,7.07
2023-03-15T14:30:00.618Z,6.93
2023-03-15T14:32:31.099Z,6.57
2023-03-15T14:35:36.514Z,7.32
2023-03-15T14:38:20.010Z,5.35
2023-03-15T14:40:47.870Z,6.68
2023-03-15T14:43:14.971Z,10.18
2023-03-15T14:45:44.402Z,4.22
2023-03-15T14:48:13.884Z,6.15
2023-03-15T14:50:42.514Z,5.88
2023-03-15T14:53:13.406Z,14.18
2023-03-15T14:55:40.768Z,5.57
2023-03-15T14:58:22.038Z,5.40
2023-03-15T15:00:51.596Z,9.98
2023-03-15T15:03:51.416Z,7.70
2023-03-15T15:06:18.488Z,8.73
2023-03-15T15:08:47.151Z,8.98
2023-03-15T15:11:14.809Z,8.50
2023-03-15T15:17:59.761Z,7.93
2023-03-15T15:20:26.608Z,15.15
2023-03-15T15:22:53.478Z,15.38
2023-03-15T15:25:22.963Z,7.93
2023-03-15T15:27:50.705Z,7.22
2023-03-15T15:30:23.417Z,7.95
2023-03-15T15:32:51.345Z,7.70
2023-03-15T15:35:20.030Z,6.45
2023-03-15T15:37:49.096Z,8.38
2023-03-15T15:40:48.708Z,10.25
2023-03-15T15:46:25.626Z,15.18
2023-03-15T15:48:52.831Z,12.60
2023-03-15T16:02:36.975Z,10.18
2023-03-15T16:05:07.594Z,10.57
2023-03-15T16:07:36.848Z,7.75
2023-03-15T16:10:04.495Z,8.10
2023-03-15T16:12:32.923Z,10.70
2023-03-15T16:14:59.788Z,12.65
2023-03-15T16:17:27.391Z,12.98
2023-03-15T16:19:54.826Z,6.57
2023-03-15T16:22:23.625Z,12.05
2023-03-15T16:24:53.769Z,10.40
2023-03-15T16:27:26.009Z,10.07
2023-03-15T16:32:41.000Z,16.25
2023-03-15T16:35:09.582Z,22.05
2023-03-15T16:37:38.743Z,7.78
2023-03-15T16:40:10.861Z,6.38
2023-03-15T16:42:37.653Z,4.35
2023-03-15T16:45:12.659Z,5.85
2023-03-15T16:47:39.533Z,5.97
2023-03-15T16:50:06.526Z,5.50
2023-03-15T16:52:33.487Z,4.95
2023-03-15T16:55:01.223Z,7.22
2023-03-15T16:57:28.226Z,9.63
2023-03-15T16:59:55.103Z,9.73
2023-03-15T17:02:23.848Z,10.40
2023-03-15T17:04:52.788Z,8.35
2023-03-15T17:07:24.875Z,7.95
2023-03-15T17:09:51.788Z,9.52
2023-03-15T17:12:25.338Z,8.65
2023-03-15T17:14:53.158Z,7.85
2023-03-15T17:17:22.505Z,7.82
2023-03-15T17:19:49.404Z,8.75
2023-03-15T17:22:17.291Z,12.15
2023-03-15T17:24:46.613Z,7.05
2023-03-15T17:27:21.697Z,9.05
2023-03-15T17:29:49.180Z,7.15
2023-03-15T17:32:16.013Z,6.40
2023-03-15T17:34:47.237Z,8.90
2023-03-15T17:37:15.148Z,12.20
2023-03-15T17:39:42.841Z,11.68
2023-03-15T17:42:14.192Z,16.92
2023-03-15T17:44:41.749Z,23.80
2023-03-15T17:47:12.029Z,27.27
2023-03-15T17:49:39.256Z,32.22
2023-03-15T17:52:15.466Z,23.70
2023-03-15T17:54:43.910Z,20.98
2023-03-15T17:57:14.078Z,20.67
2023-03-15T17:59:40.958Z,24.77
2023-03-15T18:02:17.473Z,20.80
2023-03-15T18:04:44.422Z,27.85
2023-03-15T18:07:11.332Z,22.98
2023-03-15T18:09:38.210Z,35.45
2023-03-15T18:12:05.253Z,24.15
2023-03-15T18:14:37.157Z,28.40
2023-03-15T18:17:04.259Z,30.02
2023-03-15T18:19:31.299Z,28.60
2023-03-15T18:21:58.088Z,29.10
2023-03-15T18:24:25.017Z,31.15
2023-03-15T18:26:52.934Z,25.55
2023-03-15T18:29:19.905Z,31.23
2023-03-15T18:31:46.747Z,31.15
2023-03-15T18:34:16.601Z,36.53
2023-03-15T18:36:43.532Z,32.22
2023-03-15T18:39:10.565Z,33.63
2023-03-15T18:41:37.443Z,42.92
2023-03-15T18:44:04.272Z,30.83
2023-03-15T18:46:32.130Z,37.65
2023-03-15T18:48:59.274Z,35.05
2023-03-15T18:51:28.202Z,44.42
2023-03-15T18:53:55.826Z,37.25
2023-03-15T18:56:24.970Z,47.58
2023-03-15T18:58:53.566Z,62.95
2023-03-15T19:01:24.993Z,55.78
2023-03-15T19:03:52.925Z,53.20
2023-03-15T19:06:20.596Z,57.17
2023-03-15T19:08:53.212Z,61.50
2023-03-15T19:11:21.288Z,58.40
2023-03-15T19:13:54.019Z,62.47
2023-03-15T19:16:21.678Z,62.17
2023-03-15T19:18:49.647Z,62.97
2023-03-15T19:21:18.792Z,68.95
2023-03-15T19:23:46.658Z,70.22
2023-03-15T19:26:13.949Z,79.20
2023-03-15T19:28:40.968Z,82.97
2023-03-15T19:31:09.117Z,75.38
2023-03-15T19:33:36.411Z,84.10
2023-03-15T19:36:03.686Z,83.68
2023-03-15T19:38:30.642Z,78.07
2023-03-15T19:41:02.746Z,71.20
2023-03-15T19:43:29.650Z,75.40
2023-03-15T19:45:56.628Z,80.07
2023-03-15T19:48:23.477Z,76.80
2023-03-15T19:50:50.453Z,75.80
2023-03-15T19:53:18.109Z,78.13
2023-03-15T19:55:45.158Z,75.32
2023-03-15T19:58:11.955Z,84.05
2023-03-15T20:00:38.829Z,74.68
2023-03-15T20:03:05.721Z,71.82
2023-03-15T20:05:32.787Z,82.68
2023-03-15T20:08:00.477Z,65.63
2023-03-15T20:10:27.477Z,73.38
2023-03-15T20:12:59.053Z,79.72
2023-03-15T20:15:28.223Z,53.85
2023-03-15T20:17:56.317Z,64.32
2023-03-15T20:20:23.589Z,73.68
2023-03-15T20:22:50.730Z,62.25
2023-03-15T20:25:19.362Z,62.38
2023-03-15T20:27:46.726Z,56.00
2023-03-15T20:30:15.757Z,59.13
2023-03-15T20:32:42.914Z,58.55
2023-03-15T20:35:10.188Z,58.97
2023-03-15T20:37:40.646Z,57.85
2023-03-15T20:40:09.798Z,58.35
2023-03-15T20:42:38.521Z,57.90
2023-03-15T20:45:07.314Z,53.17
2023-03-15T20:47:34.577Z,54.10
2023-03-15T20:50:01.788Z,50.10
2023-03-15T20:52:28.868Z,47.17
2023-03-15T20:54:55.984Z,52.17
2023-03-15T20:57:22.827Z,46.67
2023-03-15T20:59:49.732Z,48.80
2023-03-15T21:02:17.036Z,48.03
2023-03-15T21:04:44.651Z,47.58
2023-03-15T21:07:12.023Z,42.38
2023-03-15T21:09:39.636Z,50.15
2023-03-15T21:12:09.082Z,42.30
2023-03-15T21:14:36.010Z,36.40
2023-03-15T21:17:02.872Z,34.67
2023-03-15T21:19:32.073Z,42.83
2023-03-15T21:22:00.874Z,42.42
2023-03-15T21:24:40.689Z,51.83
2023-03-15T21:27:11.421Z,52.55
2023-03-15T21:29:40.085Z,44.15
2023-03-15T21:32:07.456Z,51.17
2023-03-15T21:34:34.527Z,56.95
2023-03-15T21:37:01.455Z,64.28
2023-03-15T21:39:28.296Z,78.03
2023-03-15T21:41:55.188Z,65.85
2023-03-15T21:44:22.755Z,63.03
2023-03-15T21:46:49.637Z,71.70
2023-03-15T21:49:16.558Z,75.72
2023-03-15T21:51:46.029Z,68.30
2023-03-15T21:56:53.304Z,66.35
2023-03-15T21:59:27.566Z,68.10
2023-03-15T22:01:55.745Z,66.45
2023-03-15T22:04:24.586Z,69.88
2023-03-15T22:06:54.683Z,71.03
2023-03-15T22:09:23.269Z,63.45
2023-03-15T22:11:50.567Z,63.38
2023-03-15T22:14:17.462Z,68.32
2023-03-15T22:16:44.771Z,61.45
2023-03-15T22:19:11.926Z,64.95
2023-03-15T22:21:38.716Z,62.03
2023-03-15T22:24:06.051Z,62.72
2023-03-15T22:26:32.948Z,63.92
2023-03-15T22:28:59.789Z,64.47
2023-03-15T22:31:26.677Z,63.65
2023-03-15T22:33:55.026Z,68.97
2023-03-15T22:36:23.041Z,62.22
2023-03-15T22:38:50.260Z,60.88
2023-03-15T22:41:18.865Z,62.65
2023-03-15T22:43:46.029Z,62.00
2023-03-15T22:46:13.248Z,55.03
2023-03-15T22:48:40.161Z,56.03
2023-03-15T22:51:08.811Z,66.53
2023-03-15T22:53:35.999Z,67.70
2023-03-15T22:56:04.133Z,61.20
2023-03-15T22:58:31.477Z,57.60
2023-03-15T23:00:58.659Z,65.10
2023-03-15T23:03:26.522Z,64.18
2023-03-15T23:05:56.548Z,59.33
2023-03-15T23:08:23.580Z,52.72
2023-03-15T23:10:50.825Z,55.35
2023-03-15T23:13:17.767Z,59.83
2023-03-15T23:15:45.030Z,54.95
2023-03-15T23:18:14.595Z,50.35
2023-03-15T23:20:42.333Z,47.70
2023-03-15T23:23:11.536Z,50.65
2023-03-15T23:25:39.127Z,48.15
2023-03-15T23:28:06.963Z,42.65
2023-03-15T23:30:35.752Z,38.70
2023-03-15T23:33:03.840Z,45.63
2023-03-15T23:35:31.908Z,39.85
2023-03-15T23:37:58.898Z,43.58
2023-03-15T23:40:26.175Z,41.00
2023-03-15T23:42:59.358Z,32.03
2023-03-15T23:45:28.043Z,36.47
2023-03-15T23:47:55.050Z,36.67
2023-03-15T23:50:26.219Z,26.88
2023-03-15T23:52:54.845Z,30.95
2023-03-15T23:55:23.566Z,32.38
2023-03-15T23:57:51.515Z,34.60
